Crooked River, Oregon
Current Conditions -  °F | °C
As of 4:56 PM on Wednesday 22 Oct 2014 (Local Time) from KRDM Reporting Station
Overcast Overcast  
Wind Chill: 61°   Ceiling: 5500
Heat Index: 61°   Visibility: 10mi
Dew Point: 39°   Wind: 17mph
Humidity: 44%   Direction: 190°S
Pressure: 29.82"   Gusts: 25mph
Location:  44.3536°N, 121.195°W
Report Text: KRDM 222356Z 19015G22KT 10SM OVC055 16/04 A2982 RMK AO2 SLP085 60000 T01610039 10172 20122 55003
Loading
Personal Weather Stations






























Interactive Weather Map
Tropical Storm Tracking
New forecast layout! Learn more

10-Day Weather Forecast

Advertisements
Track Severe Weather on mobile